Time;durP1;ratioP1;P1;durP2;ratioP2;P2;SDS_P1;SDS_P2;PMS_P1;PMS_P2;Temp;Humidity;BMP_temperature;BMP_pressure;BME280_temperature;BME280_humidity;BME280_pressure;Samples;Min_cycle;Max_cycle;Signal;HPM_P1;HPM_P2
2022/09/29 00:02:00;;;;;;;1.87;1.70;;;;;;;23.16;55.25;96041.25;5050641;28;20209;-30
2022/09/29 00:04:27;;;;;;;1.57;1.47;;;;;;;23.16;55.18;96038.66;5050080;28;20243;-31
2022/09/29 00:06:53;;;;;;;1.67;1.57;;;;;;;23.16;55.19;96043.81;5053018;28;20216;-31
2022/09/29 00:09:19;;;;;;;1.57;1.47;;;;;;;23.15;55.31;96039.53;5049876;28;20216;-31
2022/09/29 00:11:46;;;;;;;1.63;1.53;;;;;;;23.16;55.17;96039.53;5050513;28;20201;-31
2022/09/29 00:14:12;;;;;;;1.70;1.60;;;;;;;23.16;55.31;96031.84;5054681;28;20231;-31
2022/09/29 00:16:39;;;;;;;1.80;1.70;;;;;;;23.14;55.28;96031.00;5058393;28;20197;-31
2022/09/29 00:19:06;;;;;;;1.53;1.43;;;;;;;23.17;55.28;96037.81;5043909;28;20683;-31
2022/09/29 00:21:45;;;;;;;1.63;1.53;;;;;;;23.16;55.16;96034.41;5044848;28;20208;-31
2022/09/29 00:24:11;;;;;;;1.70;1.60;;;;;;;23.16;55.24;96028.44;5048216;28;20691;-31
2022/09/29 00:26:38;;;;;;;1.70;1.60;;;;;;;23.16;55.30;96025.84;5045694;28;20227;-31
2022/09/29 00:29:04;;;;;;;1.50;1.40;;;;;;;23.16;55.24;96024.16;5050271;28;20220;-31
2022/09/29 00:31:31;;;;;;;1.60;1.50;;;;;;;23.16;55.21;96029.28;5049396;28;20205;-31
2022/09/29 00:33:58;;;;;;;1.50;1.40;;;;;;;23.15;55.32;96022.44;5052688;28;20220;-31
2022/09/29 00:36:29;;;;;;;1.53;1.43;;;;;;;23.14;55.28;96025.84;5052691;28;20698;-31
2022/09/29 00:38:56;;;;;;;1.63;1.53;;;;;;;23.15;55.34;96027.56;5048520;28;20224;-31
2022/09/29 00:41:30;;;;;;;1.60;1.50;;;;;;;23.07;55.40;96013.88;5049339;28;20205;-30
2022/09/29 00:43:59;;;;;;;1.60;1.50;;;;;;;23.14;55.44;96025.00;5048080;28;20585;-31
2022/09/29 00:46:48;;;;;;;1.43;1.33;;;;;;;23.15;55.27;96032.69;5048605;28;20726;-31
2022/09/29 00:49:25;;;;;;;1.70;1.60;;;;;;;23.16;55.51;96043.81;5053250;28;20192;-31
2022/09/29 00:51:58;;;;;;;1.50;1.40;;;;;;;23.15;55.24;96042.09;5057179;28;20209;-31
2022/09/29 00:54:28;;;;;;;1.60;1.50;;;;;;;23.14;55.33;96042.94;5047804;28;20235;-31
2022/09/29 00:56:55;;;;;;;1.60;1.50;;;;;;;23.15;55.18;96029.28;5047996;28;20299;-31
2022/09/29 00:59:33;;;;;;;1.40;1.30;;;;;;;23.12;55.33;96024.16;5033474;28;20228;-31
2022/09/29 01:02:00;;;;;;;1.47;1.37;;;;;;;23.15;55.34;96024.16;5031284;28;20219;-31
2022/09/29 01:04:27;;;;;;;1.60;1.50;;;;;;;23.15;55.32;96031.84;5054380;28;20220;-31
2022/09/29 01:06:55;;;;;;;2.77;1.40;;;;;;;23.09;55.40;96013.88;5047291;28;20200;-31
2022/09/29 01:09:27;;;;;;;1.67;1.57;;;;;;;23.15;55.28;96026.72;5037490;28;20212;-31
2022/09/29 01:11:57;;;;;;;1.57;1.47;;;;;;;23.15;55.24;96025.00;5046081;28;20205;-31
2022/09/29 01:14:24;;;;;;;1.23;1.20;;;;;;;23.14;55.29;96018.16;5045693;28;20224;-31
2022/09/29 01:16:50;;;;;;;1.50;1.40;;;;;;;23.15;55.34;96011.34;5050480;28;20205;-31
2022/09/29 01:19:42;;;;;;;1.50;1.40;;;;;;;23.15;55.40;96008.78;5062148;28;20475;-31
2022/09/29 01:22:30;;;;;;;1.80;1.60;;;;;;;23.09;55.35;95999.38;5036529;28;20208;-31
2022/09/29 01:25:31;;;;;;;1.60;1.50;;;;;;;23.14;55.19;96002.78;5047745;28;20229;-30
2022/09/29 01:28:20;;;;;;;1.50;1.40;;;;;;;23.15;55.30;96011.34;5048815;28;20991;-31
2022/09/29 01:30:50;;;;;;;1.50;1.40;;;;;;;23.15;55.24;96013.91;5047013;28;20201;-31
2022/09/29 01:33:24;;;;;;;1.30;1.20;;;;;;;22.94;55.20;95981.44;5048683;28;20197;-30
2022/09/29 01:36:13;;;;;;;1.37;1.30;;;;;;;23.15;55.19;96016.47;5038598;28;20231;-31
2022/09/29 01:39:17;;;;;;;1.60;1.50;;;;;;;23.15;55.24;96011.34;5048956;28;20201;-31
2022/09/29 01:41:43;;;;;;;1.47;1.37;;;;;;;23.14;55.20;96010.47;5048498;28;20196;-31
2022/09/29 01:44:23;;;;;;;1.50;1.40;;;;;;;23.13;55.34;96010.50;5048771;28;20231;-31
2022/09/29 01:46:56;;;;;;;1.43;1.33;;;;;;;23.11;55.29;96015.63;5049365;28;20205;-32
2022/09/29 01:49:23;;;;;;;1.37;1.30;;;;;;;23.13;55.21;96024.16;5047248;28;20212;-30
2022/09/29 01:51:54;;;;;;;1.37;1.27;;;;;;;23.13;55.38;96011.34;5028881;28;20700;-31
2022/09/29 01:54:29;;;;;;;1.60;1.50;;;;;;;23.13;55.35;96018.19;5036125;28;20214;-31
2022/09/29 01:56:59;;;;;;;1.60;1.50;;;;;;;23.13;55.29;96010.50;5047042;28;20211;-31
2022/09/29 01:59:27;;;;;;;1.50;1.40;;;;;;;23.13;55.32;96008.78;5053390;28;20200;-31
2022/09/29 02:01:57;;;;;;;1.60;1.50;;;;;;;23.11;55.39;96004.50;5048168;28;20205;-31
2022/09/29 02:04:30;;;;;;;1.50;1.40;;;;;;;23.13;55.29;96008.78;5018018;28;20267;-31
2022/09/29 02:07:02;;;;;;;1.70;1.60;;;;;;;23.14;55.37;96001.94;5046542;28;20223;-30
2022/09/29 02:09:32;;;;;;;1.60;1.50;;;;;;;23.13;55.32;96007.91;5047355;28;20569;-31
2022/09/29 02:11:58;;;;;;;1.30;1.20;;;;;;;23.13;55.38;96008.78;5047713;28;20208;-31
2022/09/29 02:14:27;;;;;;;1.60;1.50;;;;;;;23.11;55.37;95996.81;5048020;28;20217;-31
2022/09/29 02:17:04;;;;;;;1.30;1.20;;;;;;;23.12;55.29;96012.19;5046453;28;20208;-31
2022/09/29 02:19:35;;;;;;;1.50;1.40;;;;;;;23.01;55.40;95995.94;5030614;28;20227;-31
2022/09/29 02:22:02;;;;;;;1.50;1.40;;;;;;;23.12;55.17;96012.19;5038629;28;20201;-31
2022/09/29 02:24:28;;;;;;;1.30;1.20;;;;;;;23.14;55.51;96013.03;5047369;28;20707;-31
2022/09/29 02:26:55;;;;;;;1.50;1.40;;;;;;;23.13;55.49;96013.03;5039020;28;20668;-31
2022/09/29 02:29:21;;;;;;;1.40;1.30;;;;;;;23.13;55.32;96023.31;5046562;28;20208;-31
2022/09/29 02:31:48;;;;;;;3.17;1.43;;;;;;;23.11;55.48;96014.75;5046609;28;20580;-31
2022/09/29 02:34:18;;;;;;;1.40;1.30;;;;;;;23.05;55.37;96001.94;5045818;28;20718;-31
2022/09/29 02:37:01;;;;;;;1.60;1.50;;;;;;;23.14;55.23;96015.63;5027187;28;20201;-31
2022/09/29 02:39:46;;;;;;;2.20;1.60;;;;;;;23.14;55.26;96017.31;5046009;28;20216;-31
2022/09/29 02:42:30;;;;;;;1.40;1.30;;;;;;;23.13;55.40;96021.59;5038935;28;20219;-31
2022/09/29 02:45:18;;;;;;;1.50;1.40;;;;;;;23.13;55.35;96021.59;5045914;28;20217;-31
2022/09/29 02:47:56;;;;;;;1.50;1.40;;;;;;;23.14;55.38;96025.00;5047855;28;20205;-31
2022/09/29 02:50:41;;;;;;;1.40;1.30;;;;;;;23.13;55.29;96013.91;5046252;28;20200;-31
2022/09/29 02:53:36;;;;;;;1.50;1.40;;;;;;;23.13;55.28;96007.91;5039766;28;20200;-31
2022/09/29 02:56:31;;;;;;;1.40;1.30;;;;;;;23.05;55.36;95987.44;5047380;28;20686;-30
2022/09/29 02:59:02;;;;;;;1.43;1.33;;;;;;;23.13;55.29;96002.81;5045869;28;20205;-30
2022/09/29 03:01:32;;;;;;;1.40;1.30;;;;;;;23.12;55.25;96007.06;5048047;28;20204;-31
2022/09/29 03:03:59;;;;;;;1.50;1.40;;;;;;;23.11;55.23;96000.25;5045791;28;20229;-31
2022/09/29 03:06:30;;;;;;;1.60;1.40;;;;;;;23.09;55.33;96012.19;5047636;28;20560;-31
2022/09/29 03:08:56;;;;;;;1.50;1.40;;;;;;;23.10;55.29;96026.72;5047485;28;20212;-31
2022/09/29 03:11:23;;;;;;;1.17;1.17;;;;;;;23.12;55.20;96019.03;5047471;28;20201;-31
2022/09/29 03:13:49;;;;;;;1.50;1.40;;;;;;;23.12;55.37;96019.88;5047226;28;20216;-31
2022/09/29 03:16:16;;;;;;;1.30;1.30;;;;;;;23.12;55.35;96019.03;5046899;28;20209;-31
2022/09/29 03:18:43;;;;;;;1.40;1.30;;;;;;;23.10;55.28;96005.38;5047319;28;20204;-31
2022/09/29 03:21:09;;;;;;;1.70;1.60;;;;;;;23.13;55.35;96020.72;5047193;28;20201;-30
2022/09/29 03:23:35;;;;;;;1.40;1.20;;;;;;;23.12;55.27;96007.06;5048174;28;20635;-31
2022/09/29 03:26:02;;;;;;;1.40;1.30;;;;;;;23.11;55.27;95997.69;5048071;28;20197;-31
2022/09/29 03:28:28;;;;;;;1.50;1.40;;;;;;;23.10;55.27;95998.53;5048142;28;20216;-31
2022/09/29 03:30:55;;;;;;;1.50;1.40;;;;;;;23.11;55.25;96010.50;5046028;28;20212;-31
2022/09/29 03:33:21;;;;;;;1.27;1.27;;;;;;;23.12;55.03;96003.66;5042540;28;20204;-31
2022/09/29 03:35:48;;;;;;;1.40;1.30;;;;;;;23.12;55.06;96003.66;5047280;28;20228;-31
2022/09/29 03:38:14;;;;;;;1.40;1.30;;;;;;;23.12;55.28;96011.34;5048373;28;20208;-31
2022/09/29 03:40:41;;;;;;;1.30;1.20;;;;;;;23.13;55.34;96013.03;5047747;28;20208;-31
2022/09/29 03:43:08;;;;;;;1.37;1.27;;;;;;;23.10;55.19;95990.00;5048272;28;20236;-31
2022/09/29 03:45:34;;;;;;;1.40;1.30;;;;;;;23.14;55.36;95991.69;5047453;28;20217;-31
2022/09/29 03:48:01;;;;;;;1.50;1.40;;;;;;;23.13;55.29;95987.41;5047448;28;20211;-31
2022/09/29 03:50:27;;;;;;;1.30;1.20;;;;;;;23.13;55.32;95987.41;5047797;28;20212;-31
2022/09/29 03:52:54;;;;;;;1.60;1.50;;;;;;;23.11;55.37;95986.56;5048252;28;20622;-31
2022/09/29 03:55:20;;;;;;;1.40;1.30;;;;;;;23.13;55.21;95987.41;5048551;28;20737;-31
2022/09/29 03:57:47;;;;;;;1.43;1.33;;;;;;;23.13;55.43;95990.84;5051832;28;20201;-31
2022/09/29 04:00:14;;;;;;;1.33;1.27;;;;;;;23.10;55.29;95983.16;5051904;28;20192;-31
2022/09/29 04:02:40;;;;;;;1.37;1.27;;;;;;;23.13;55.22;95992.53;5051408;28;20205;-31
2022/09/29 04:05:07;;;;;;;1.10;1.10;;;;;;;23.13;55.11;95990.00;5042739;28;20706;-31
2022/09/29 04:07:33;;;;;;;1.40;1.30;;;;;;;23.12;55.26;95993.41;5051165;28;20208;-31
2022/09/29 04:10:00;;;;;;;1.40;1.30;;;;;;;23.13;55.25;95995.09;5052461;28;20200;-31
2022/09/29 04:12:26;;;;;;;1.27;1.20;;;;;;;23.12;55.36;96004.50;5050483;28;20205;-31
2022/09/29 04:14:53;;;;;;;1.30;1.20;;;;;;;23.10;54.96;95995.13;5051121;28;20225;-31
2022/09/29 04:17:20;;;;;;;1.40;1.30;;;;;;;23.13;55.29;95997.69;5050917;28;20201;-32
2022/09/29 04:19:47;;;;;;;1.30;1.20;;;;;;;23.12;55.02;96006.22;5051259;28;20200;-31
2022/09/29 04:22:17;;;;;;;1.50;1.40;;;;;;;23.12;55.22;95996.81;5051036;28;20841;-31
2022/09/29 04:24:44;;;;;;;1.60;1.30;;;;;;;23.11;55.22;95994.25;5050701;28;20233;-31
2022/09/29 04:27:11;;;;;;;1.27;1.17;;;;;;;23.12;55.20;95991.69;5059542;28;20200;-31
2022/09/29 04:29:37;;;;;;;1.57;1.30;;;;;;;23.12;55.41;95998.53;5050358;28;20699;-31
2022/09/29 04:32:05;;;;;;;1.30;1.20;;;;;;;23.12;55.18;96004.50;5051225;28;20205;-31
2022/09/29 04:34:32;;;;;;;1.50;1.40;;;;;;;23.12;55.25;95995.97;5050509;28;20610;-31
2022/09/29 04:36:58;;;;;;;1.10;1.10;;;;;;;23.11;55.38;96002.81;5050926;28;20213;-31
2022/09/29 04:39:25;;;;;;;1.40;1.30;;;;;;;23.11;55.30;96005.38;5050533;28;20197;-31
2022/09/29 04:41:51;;;;;;;1.20;1.20;;;;;;;23.06;55.23;95986.56;5048795;28;20213;-31
2022/09/29 04:44:23;;;;;;;1.50;1.40;;;;;;;23.12;55.14;95999.38;5048644;28;20278;-31
2022/09/29 04:46:50;;;;;;;1.40;1.30;;;;;;;23.12;55.21;96009.63;5050245;28;20314;-31
2022/09/29 04:49:17;;;;;;;1.30;1.20;;;;;;;23.10;55.19;96002.81;5050319;28;20212;-31
2022/09/29 04:51:44;;;;;;;1.40;1.30;;;;;;;23.09;55.20;96003.63;5050320;28;20208;-31
2022/09/29 04:54:11;;;;;;;1.30;1.20;;;;;;;23.12;55.29;96012.19;5050116;28;20216;-31
2022/09/29 04:56:37;;;;;;;1.30;1.20;;;;;;;23.13;55.22;96015.63;5050317;28;20205;-31
2022/09/29 04:59:04;;;;;;;1.40;1.30;;;;;;;23.12;55.11;96017.31;5050492;28;20215;-31
2022/09/29 05:01:31;;;;;;;1.17;1.17;;;;;;;23.13;55.37;96016.47;5050487;28;20205;-31
2022/09/29 05:03:57;;;;;;;1.03;1.03;;;;;;;23.13;54.97;96024.16;5049942;28;20585;-31
2022/09/29 05:06:24;;;;;;;1.40;1.30;;;;;;;23.12;55.14;96019.88;5049160;28;20200;-31
2022/09/29 05:08:50;;;;;;;1.10;1.10;;;;;;;23.13;55.05;96023.31;5050086;28;20212;-31
2022/09/29 05:11:17;;;;;;;1.00;1.00;;;;;;;23.13;54.99;96018.19;5050104;28;20266;-31
2022/09/29 05:13:43;;;;;;;1.50;1.40;;;;;;;23.14;55.18;96017.31;5049916;28;20208;-31
2022/09/29 05:16:10;;;;;;;1.50;1.40;;;;;;;23.14;55.18;96014.75;5043437;28;20667;-31
2022/09/29 05:18:36;;;;;;;1.40;1.30;;;;;;;23.13;55.10;96013.91;5058865;28;20208;-31
2022/09/29 05:21:04;;;;;;;1.37;1.27;;;;;;;23.13;54.91;96015.63;5050078;28;20363;-31
2022/09/29 05:23:51;;;;;;;1.40;1.30;;;;;;;23.13;55.13;96018.19;5049822;28;20761;-31
2022/09/29 05:26:17;;;;;;;1.40;1.30;;;;;;;23.13;55.22;96021.59;5049486;28;20687;-31
2022/09/29 05:28:45;;;;;;;1.40;1.30;;;;;;;23.13;55.17;96031.00;5050039;28;20200;-31
2022/09/29 05:31:11;;;;;;;1.20;1.20;;;;;;;23.12;55.04;96030.13;5049478;28;20204;-31
2022/09/29 05:33:38;;;;;;;1.50;1.40;;;;;;;23.13;55.20;96029.28;5048849;28;20593;-31
2022/09/29 05:36:06;;;;;;;1.30;1.20;;;;;;;23.12;55.11;96024.16;5044351;28;20205;-31
2022/09/29 05:38:34;;;;;;;1.40;1.30;;;;;;;23.12;55.21;96025.00;5049586;28;20205;-31
2022/09/29 05:41:04;;;;;;;2.37;1.30;;;;;;;23.06;55.24;96016.44;5049609;28;20676;-31
2022/09/29 05:43:31;;;;;;;1.40;1.30;;;;;;;23.14;55.19;96022.44;5049109;28;20729;-31
2022/09/29 05:46:01;;;;;;;1.50;1.40;;;;;;;23.11;55.23;96017.31;5059960;28;20200;-31
2022/09/29 05:48:29;;;;;;;1.50;1.40;;;;;;;23.13;55.15;96024.16;5050338;28;20621;-31
2022/09/29 05:50:56;;;;;;;1.50;1.40;;;;;;;23.13;54.99;96018.19;5048220;28;20619;-31
2022/09/29 05:53:23;;;;;;;1.40;1.30;;;;;;;23.14;55.19;96018.16;5049396;28;20227;-31
2022/09/29 05:55:50;;;;;;;1.17;1.17;;;;;;;23.13;55.12;96011.34;5048852;28;20228;-31
2022/09/29 05:58:16;;;;;;;1.30;1.20;;;;;;;23.14;55.09;96007.06;5049011;28;20207;-31
2022/09/29 06:00:43;;;;;;;1.40;1.30;;;;;;;23.12;55.13;96006.22;5049177;28;20208;-31
2022/09/29 06:03:09;;;;;;;1.20;1.20;;;;;;;23.15;55.10;96007.06;5048971;28;20197;-31
2022/09/29 06:05:39;;;;;;;1.07;1.07;;;;;;;23.14;55.21;95989.97;5049161;28;20249;-31
2022/09/29 06:08:06;;;;;;;1.40;1.30;;;;;;;23.15;54.99;95993.41;5041219;28;20220;-31
2022/09/29 06:10:32;;;;;;;1.20;1.20;;;;;;;23.13;55.08;95987.41;5049493;28;20570;-31
2022/09/29 06:13:02;;;;;;;1.03;1.03;;;;;;;23.14;55.16;95984.84;5048546;28;20217;-31
2022/09/29 06:15:28;;;;;;;1.33;1.23;;;;;;;23.10;54.98;95988.28;5048801;28;20224;-31
2022/09/29 06:17:56;;;;;;;1.03;1.03;;;;;;;23.09;55.13;95989.13;5048055;28;20204;-31
2022/09/29 06:20:22;;;;;;;1.50;1.40;;;;;;;23.15;54.97;95999.38;5048715;28;20197;-31
2022/09/29 06:22:50;;;;;;;1.40;1.30;;;;;;;23.15;55.11;96004.50;5048647;28;20227;-31
2022/09/29 06:25:17;;;;;;;1.40;1.30;;;;;;;23.16;55.00;96005.34;5048416;28;20236;-31
2022/09/29 06:27:43;;;;;;;1.37;1.20;;;;;;;23.13;55.00;96001.09;5048933;28;20205;-31
2022/09/29 06:30:12;;;;;;;1.40;1.30;;;;;;;23.13;54.97;96000.22;5047091;28;20227;-31
2022/09/29 06:32:39;;;;;;;1.20;1.20;;;;;;;23.16;55.16;96002.78;5050526;28;20254;-31
2022/09/29 06:37:52;;;;;;;1.37;1.27;;;;;;;23.15;55.07;96003.66;5047422;28;20205;-31
2022/09/29 06:40:22;;;;;;;1.30;1.20;;;;;;;23.15;54.91;95999.38;5052263;28;20588;-31
2022/09/29 06:42:49;;;;;;;1.40;1.30;;;;;;;23.15;55.09;96004.50;5054991;28;20208;-31
2022/09/29 06:45:15;;;;;;;1.40;1.30;;;;;;;23.15;55.16;95999.38;5048342;28;20231;-31
2022/09/29 06:47:47;;;;;;;1.30;1.20;;;;;;;23.14;55.11;96000.22;5048705;28;20201;-31
2022/09/29 06:50:14;;;;;;;1.10;1.10;;;;;;;23.15;55.02;96001.09;5048352;28;20481;-31
2022/09/29 06:52:49;;;;;;;1.30;1.20;;;;;;;23.15;55.04;96003.66;5048591;28;20531;-31
2022/09/29 06:55:29;;;;;;;1.10;1.10;;;;;;;23.15;55.08;96012.19;5047968;28;20299;-31
2022/09/29 06:57:56;;;;;;;1.30;1.20;;;;;;;23.15;55.08;96016.47;5048535;28;20221;-31
2022/09/29 07:00:29;;;;;;;1.30;1.20;;;;;;;23.14;54.92;96015.63;5047083;28;20200;-31
2022/09/29 07:02:55;;;;;;;1.20;1.20;;;;;;;23.15;55.02;96014.75;5050218;28;20204;-31
2022/09/29 07:05:22;;;;;;;1.40;1.30;;;;;;;23.16;55.23;96013.03;5054657;28;20228;-31
2022/09/29 07:07:48;;;;;;;1.37;1.27;;;;;;;23.15;55.17;96013.91;5048277;28;20598;-31
2022/09/29 07:10:19;;;;;;;1.20;1.20;;;;;;;23.16;55.05;96021.59;5048146;28;20331;-31
2022/09/29 07:12:46;;;;;;;1.30;1.20;;;;;;;23.16;54.97;96018.16;5047753;28;20212;-31
2022/09/29 07:15:13;;;;;;;1.37;1.27;;;;;;;23.16;55.13;96023.28;5048200;28;20228;-31
2022/09/29 07:17:39;;;;;;;1.40;1.30;;;;;;;23.13;54.80;96019.03;5047905;28;20583;-31
2022/09/29 07:20:06;;;;;;;1.40;1.30;;;;;;;23.16;55.08;96034.41;5040349;28;20690;-31
2022/09/29 07:22:33;;;;;;;1.30;1.20;;;;;;;23.17;54.98;96035.25;5047760;28;20204;-31
2022/09/29 07:24:59;;;;;;;1.37;1.27;;;;;;;23.17;55.08;96040.38;5051372;28;20229;-31
2022/09/29 07:27:26;;;;;;;1.37;1.27;;;;;;;23.17;55.05;96030.13;5054656;28;20232;-31
2022/09/29 07:29:53;;;;;;;1.27;1.20;;;;;;;23.17;54.99;96037.81;5050622;28;20212;-31
2022/09/29 07:32:31;;;;;;;1.10;1.10;;;;;;;23.16;54.90;96031.84;5051706;28;20228;-31
2022/09/29 07:34:58;;;;;;;1.40;1.30;;;;;;;23.15;54.86;96034.41;5059329;28;20216;-31
2022/09/29 07:37:29;;;;;;;1.20;1.20;;;;;;;23.16;55.03;96043.81;5059856;28;20204;-31
2022/09/29 07:39:55;;;;;;;1.40;1.30;;;;;;;23.16;55.12;96047.22;5053788;28;20332;-31
2022/09/29 07:42:22;;;;;;;1.40;1.30;;;;;;;23.15;55.33;96048.06;5060998;28;20204;-31
2022/09/29 07:44:48;;;;;;;1.40;1.30;;;;;;;23.15;54.95;96053.19;5050897;28;20236;-32
2022/09/29 07:47:19;;;;;;;1.40;1.30;;;;;;;23.17;55.04;96050.63;5051728;28;20254;-31
2022/09/29 07:49:45;;;;;;;1.40;1.30;;;;;;;23.14;55.04;96046.38;5051636;28;20512;-31
2022/09/29 07:52:12;;;;;;;1.20;1.20;;;;;;;23.14;55.01;96051.50;5051415;28;20663;-31
2022/09/29 07:54:39;;;;;;;1.40;1.30;;;;;;;23.15;54.99;96048.06;5049823;28;20229;-31
2022/09/29 07:57:05;;;;;;;1.30;1.20;;;;;;;23.15;55.18;96053.19;5047619;28;20201;-30
2022/09/29 07:59:32;;;;;;;1.13;1.10;;;;;;;23.15;54.97;96065.16;5051301;28;20205;-31
2022/09/29 08:01:58;;;;;;;1.60;1.50;;;;;;;23.15;55.11;96060.88;5054731;28;20208;-31
2022/09/29 08:04:25;;;;;;;1.40;1.30;;;;;;;23.15;54.95;96066.00;5049973;28;20469;-31
2022/09/29 08:06:51;;;;;;;1.50;1.40;;;;;;;23.15;55.01;96071.13;5051410;28;20216;-31
2022/09/29 08:09:18;;;;;;;1.27;1.27;;;;;;;23.15;54.99;96066.00;5051354;28;20201;-31
2022/09/29 08:11:46;;;;;;;1.63;1.53;;;;;;;23.16;55.19;96072.00;5051029;28;20200;-31
2022/09/29 08:14:14;;;;;;;1.40;1.30;;;;;;;23.16;55.00;96074.56;5060630;28;20230;-31
2022/09/29 08:16:40;;;;;;;1.50;1.40;;;;;;;23.16;55.00;96080.53;5050797;28;20260;-31
2022/09/29 08:19:07;;;;;;;1.30;1.20;;;;;;;23.16;54.85;96083.09;5045999;28;20204;-31
2022/09/29 08:21:35;;;;;;;1.20;1.20;;;;;;;23.16;54.86;96083.09;5050667;28;20200;-31
2022/09/29 08:24:03;;;;;;;1.40;1.30;;;;;;;23.11;55.05;96066.88;5057254;28;20564;-31
2022/09/29 08:26:34;;;;;;;1.30;1.20;;;;;;;23.15;54.77;96076.25;5049034;28;20205;-31
2022/09/29 08:29:09;;;;;;;1.10;1.10;;;;;;;23.16;55.06;96074.56;5044938;28;20204;-31
2022/09/29 08:31:42;;;;;;;1.40;1.30;;;;;;;23.17;55.04;96081.38;5047687;28;20201;-31
2022/09/29 08:34:09;;;;;;;1.57;1.47;;;;;;;23.17;55.14;96079.69;5051058;28;20238;-31
2022/09/29 08:36:35;;;;;;;1.57;1.20;;;;;;;23.17;54.92;96077.13;5053476;28;20201;-31
2022/09/29 08:39:02;;;;;;;1.43;1.33;;;;;;;23.17;54.89;96081.38;5051051;28;20585;-31
2022/09/29 08:41:50;;;;;;;1.47;1.37;;;;;;;23.14;55.06;96092.50;5049732;28;20212;-31
2022/09/29 08:44:20;;;;;;;1.30;1.20;;;;;;;23.17;55.08;96094.19;5042201;28;20258;-31
2022/09/29 08:47:28;;;;;;;1.53;1.43;;;;;;;23.17;54.90;96081.38;5062546;28;20684;-31
2022/09/29 08:50:32;;;;;;;1.30;1.20;;;;;;;23.13;55.09;96080.53;5062150;28;20200;-31
2022/09/29 08:53:02;;;;;;;1.40;1.30;;;;;;;23.16;55.07;96093.34;5049532;28;20211;-31
2022/09/29 08:55:33;;;;;;;1.40;1.30;;;;;;;23.15;55.11;96091.63;5048415;28;20757;-31
2022/09/29 08:58:00;;;;;;;1.20;1.20;;;;;;;23.16;55.04;96084.81;5048587;28;20712;-31
2022/09/29 09:00:41;;;;;;;1.53;1.43;;;;;;;23.15;55.01;96089.06;5048557;28;20571;-31
2022/09/29 09:03:39;;;;;;;1.40;1.30;;;;;;;23.16;55.09;96084.81;5040653;28;20270;-31
2022/09/29 09:06:11;;;;;;;1.50;1.40;;;;;;;23.15;55.01;96086.50;5035902;28;20227;-31
2022/09/29 09:08:50;;;;;;;1.20;1.20;;;;;;;23.16;55.00;96092.50;5049934;28;20704;-31
2022/09/29 09:11:32;;;;;;;1.37;1.27;;;;;;;23.16;54.84;96089.94;5042242;28;20235;-31
2022/09/29 09:14:09;;;;;;;1.40;1.30;;;;;;;23.05;54.94;96073.69;5047987;28;20642;-31
2022/09/29 09:16:50;;;;;;;1.43;1.33;;;;;;;23.15;55.14;96080.53;5047972;28;20667;-31
2022/09/29 09:19:29;;;;;;;1.50;1.40;;;;;;;23.16;54.93;96089.94;5053990;28;20210;-31
2022/09/29 09:22:18;;;;;;;1.57;1.47;;;;;;;23.15;54.99;96083.94;5050154;28;20618;-31
2022/09/29 09:24:58;;;;;;;1.43;1.37;;;;;;;23.03;55.03;96063.44;5040559;28;20232;-31
2022/09/29 09:27:29;;;;;;;1.70;1.60;;;;;;;23.13;55.11;96079.69;5048424;28;20571;-31
2022/09/29 09:30:04;;;;;;;1.33;1.23;;;;;;;23.15;54.98;96089.06;5049686;28;20204;-31
2022/09/29 09:32:35;;;;;;;1.50;1.40;;;;;;;23.16;55.07;96089.94;5048354;28;20227;-31
2022/09/29 09:35:23;;;;;;;1.57;1.47;;;;;;;23.14;55.13;96082.25;5047475;28;20213;-31
2022/09/29 09:37:52;;;;;;;1.30;1.20;;;;;;;23.16;54.90;96088.22;5049290;28;20606;-31
2022/09/29 09:40:19;;;;;;;1.30;1.20;;;;;;;23.17;55.06;96086.50;5049538;28;20197;-31
2022/09/29 09:42:52;;;;;;;1.57;1.47;;;;;;;23.17;55.01;96091.63;5047979;28;20204;-31
2022/09/29 09:45:29;;;;;;;1.60;1.33;;;;;;;23.17;54.96;96089.06;5037321;28;20517;-31
2022/09/29 09:48:07;;;;;;;1.60;1.50;;;;;;;23.16;54.80;96085.66;5053891;28;20204;-31
2022/09/29 09:50:36;;;;;;;1.40;1.30;;;;;;;23.17;55.12;96086.50;5043005;28;20196;-31
2022/09/29 09:53:11;;;;;;;1.40;1.30;;;;;;;23.06;55.23;96067.69;5031163;28;20247;-31
2022/09/29 09:55:41;;;;;;;1.50;1.40;;;;;;;23.11;54.86;96082.25;5046271;28;20229;-31
2022/09/29 09:58:28;;;;;;;1.53;1.43;;;;;;;23.16;54.96;96090.78;5061537;28;20621;-31
2022/09/29 10:00:57;;;;;;;1.43;1.33;;;;;;;23.17;55.06;96081.38;5049995;28;20208;-31
2022/09/29 10:03:24;;;;;;;1.50;1.40;;;;;;;23.11;54.38;96081.38;5040061;28;20204;-31
2022/09/29 10:05:50;;;;;;;1.30;1.27;;;;;;;23.16;55.11;96095.06;5032955;28;20228;-31
2022/09/29 10:08:24;;;;;;;1.50;1.40;;;;;;;23.16;55.02;96092.50;5049403;28;20205;-31
2022/09/29 10:10:51;;;;;;;1.40;1.30;;;;;;;23.14;54.93;96089.94;5047587;28;20204;-31
2022/09/29 10:13:26;;;;;;;1.50;1.40;;;;;;;23.16;54.99;96098.47;5049073;28;20284;-31
2022/09/29 10:16:05;;;;;;;1.60;1.47;;;;;;;23.08;55.01;96079.69;5048758;28;20217;-31
2022/09/29 10:18:35;;;;;;;1.53;1.43;;;;;;;23.10;55.12;96077.13;5047435;28;20200;-31
2022/09/29 10:21:02;;;;;;;1.43;1.33;;;;;;;23.16;54.96;96083.09;5050358;28;20196;-31
2022/09/29 10:23:29;;;;;;;1.50;1.40;;;;;;;23.16;54.95;96087.38;5048695;28;20204;-31
2022/09/29 10:26:01;;;;;;;1.30;1.20;;;;;;;23.11;54.90;96083.94;5048483;28;20221;-31
2022/09/29 10:28:35;;;;;;;1.50;1.40;;;;;;;23.16;55.01;96092.50;5047251;28;20366;-31
2022/09/29 10:31:02;;;;;;;1.47;1.37;;;;;;;23.16;55.07;96102.75;5048987;28;20204;-31
2022/09/29 10:33:28;;;;;;;1.20;1.20;;;;;;;23.16;55.07;96103.59;5048360;28;20201;-31
2022/09/29 10:36:08;;;;;;;1.40;1.30;;;;;;;23.14;54.97;96099.31;5048759;28;20196;-31
2022/09/29 10:38:36;;;;;;;1.20;1.20;;;;;;;23.17;54.90;96109.56;5030897;28;20200;-31
2022/09/29 10:41:06;;;;;;;1.20;1.20;;;;;;;23.17;54.88;96107.00;5047702;28;20207;-31
2022/09/29 10:43:37;;;;;;;1.20;1.20;;;;;;;23.12;55.02;96091.63;5048175;28;20702;-31
2022/09/29 10:46:04;;;;;;;1.50;1.40;;;;;;;23.17;54.89;96099.31;5047834;28;20216;-31
2022/09/29 10:48:31;;;;;;;1.10;1.10;;;;;;;23.17;54.97;96102.75;5048037;28;20201;-31
2022/09/29 10:51:02;;;;;;;1.53;1.43;;;;;;;23.17;54.99;96097.63;5048471;28;20282;-31
2022/09/29 10:53:39;;;;;;;1.47;1.37;;;;;;;23.16;54.97;96098.47;5046953;28;20200;-31
2022/09/29 10:56:21;;;;;;;1.63;1.50;;;;;;;23.15;55.00;96099.31;5048107;28;20214;-31
2022/09/29 10:58:54;;;;;;;2.13;1.60;;;;;;;23.18;55.08;96103.59;5046707;28;20885;-31
2022/09/29 11:01:32;;;;;;;1.43;1.33;;;;;;;23.17;55.04;96101.88;5052081;28;20223;-31
2022/09/29 11:04:02;;;;;;;1.40;1.30;;;;;;;23.10;54.98;96097.63;5047206;28;20750;-31
2022/09/29 11:06:36;;;;;;;1.50;1.40;;;;;;;23.17;54.99;96101.88;5034289;28;20227;-31
2022/09/29 11:09:12;;;;;;;1.40;1.30;;;;;;;23.17;55.20;96110.44;5034604;28;20201;-31
2022/09/29 11:11:39;;;;;;;1.50;1.40;;;;;;;23.16;55.01;96110.44;5052232;28;20204;-31
2022/09/29 11:14:39;;;;;;;1.53;1.43;;;;;;;23.16;55.02;96123.25;5042084;28;20223;-31
2022/09/29 11:17:37;;;;;;;1.10;1.10;;;;;;;23.15;55.09;96117.25;5051333;28;20581;-31
2022/09/29 11:20:05;;;;;;;1.57;1.47;;;;;;;23.11;55.21;96107.88;5052263;28;20203;-31
2022/09/29 11:22:50;;;;;;;1.20;1.20;;;;;;;23.17;54.93;96117.25;5047519;28;20208;-31
2022/09/29 11:25:21;;;;;;;1.50;1.40;;;;;;;23.16;55.09;96123.25;5053335;28;20228;-31
2022/09/29 11:28:05;;;;;;;1.50;1.40;;;;;;;23.16;54.93;96115.56;5052382;28;20231;-31
2022/09/29 11:30:38;;;;;;;1.50;1.40;;;;;;;23.15;55.10;96113.84;5050153;28;20215;-31
2022/09/29 11:33:14;;;;;;;1.40;1.30;;;;;;;23.16;55.04;96123.25;5059181;28;20598;-31
2022/09/29 11:35:45;;;;;;;1.30;1.20;;;;;;;23.14;55.06;96115.56;5051121;28;20228;-31
2022/09/29 11:38:33;;;;;;;1.40;1.30;;;;;;;23.15;55.21;96122.38;5051766;28;20561;-31
2022/09/29 11:41:02;;;;;;;1.40;1.30;;;;;;;23.15;55.04;96119.81;5050784;28;20208;-31
2022/09/29 11:43:50;;;;;;;1.20;1.10;;;;;;;23.16;55.10;96120.69;5051730;28;20581;-31
2022/09/29 11:46:20;;;;;;;1.40;1.30;;;;;;;23.16;55.13;96118.13;5051302;28;20216;-31
2022/09/29 11:48:55;;;;;;;1.40;1.30;;;;;;;23.16;55.01;96118.97;5051951;28;20201;-31
2022/09/29 11:51:52;;;;;;;1.50;1.40;;;;;;;23.16;54.98;96113.00;5050307;28;20702;-31
2022/09/29 11:54:38;;;;;;;1.87;1.30;;;;;;;23.17;55.13;96122.38;5051574;28;20852;-31
2022/09/29 11:57:16;;;;;;;1.37;1.27;;;;;;;23.17;54.91;96119.81;5050777;28;20660;-31